Time;durP1;ratioP1;P1;durP2;ratioP2;P2;SDS_P1;SDS_P2;PMS_P1;PMS_P2;Temp;Humidity;BMP_temperature;BMP_pressure;BME280_temperature;BME280_humidity;BME280_pressure;Samples;Min_cycle;Max_cycle;Signal;HPM_P1;HPM_P2
2023/04/11 00:02:07;;;;;;;12.93;1.58;;;7.60;99.90;;;;;;5014471;28;20113;-45
2023/04/11 00:04:33;;;;;;;7.43;1.70;;;7.60;99.90;;;;;;5014317;28;20021;-44
2023/04/11 00:06:59;;;;;;;10.00;1.50;;;7.60;99.90;;;;;;5014437;28;20042;-44
2023/04/11 00:09:25;;;;;;;11.43;1.45;;;7.60;99.90;;;;;;5014093;28;20041;-45
2023/04/11 00:11:51;;;;;;;13.25;1.92;;;7.60;99.90;;;;;;5014371;28;20021;-44
2023/04/11 00:14:17;;;;;;;11.93;1.70;;;7.50;99.90;;;;;;5014120;28;20452;-44
2023/04/11 00:16:43;;;;;;;12.60;1.52;;;7.50;99.90;;;;;;5014196;28;20417;-44
2023/04/11 00:19:09;;;;;;;16.05;2.08;;;7.50;99.90;;;;;;5013948;28;20449;-45
2023/04/11 00:21:38;;;;;;;11.63;1.55;;;7.50;99.90;;;;;;5014133;28;20064;-44
2023/04/11 00:24:06;;;;;;;16.52;1.60;;;7.50;99.90;;;;;;5013537;28;20034;-44
2023/04/11 00:26:32;;;;;;;18.25;1.77;;;7.50;99.90;;;;;;5013996;28;20041;-45
2023/04/11 00:28:57;;;;;;;13.60;1.40;;;7.50;99.90;;;;;;5014094;28;20021;-44
2023/04/11 00:31:23;;;;;;;9.93;1.33;;;7.50;99.90;;;;;;5013821;28;20032;-44
2023/04/11 00:33:49;;;;;;;10.50;1.40;;;7.50;99.90;;;;;;5013772;28;20365;-44
2023/04/11 00:36:15;;;;;;;11.02;2.15;;;7.50;99.90;;;;;;5012803;28;20030;-44
2023/04/11 00:38:41;;;;;;;10.73;1.33;;;7.60;99.90;;;;;;5012484;28;20022;-44
2023/04/11 00:41:07;;;;;;;15.63;2.92;;;7.50;99.90;;;;;;5013594;28;20049;-44
2023/04/11 00:43:33;;;;;;;10.90;1.63;;;7.50;99.90;;;;;;5013618;28;20018;-44
2023/04/11 00:45:59;;;;;;;10.98;1.60;;;7.50;99.90;;;;;;5013441;28;20477;-44
2023/04/11 00:48:27;;;;;;;7.75;1.08;;;7.40;99.90;;;;;;5013599;28;20033;-45
2023/04/11 00:50:53;;;;;;;13.55;1.63;;;7.40;99.90;;;;;;5013244;28;20053;-48
2023/04/11 00:53:19;;;;;;;15.00;2.03;;;7.50;99.90;;;;;;5013577;28;20030;-45
2023/04/11 00:55:45;;;;;;;11.82;1.50;;;7.50;99.90;;;;;;5012771;28;20049;-44
2023/04/11 00:58:12;;;;;;;11.07;1.67;;;7.60;99.90;;;;;;5013365;28;20030;-44
2023/04/11 01:00:38;;;;;;;10.20;1.77;;;7.60;99.90;;;;;;5013018;28;20112;-44
2023/04/11 01:03:04;;;;;;;12.82;1.50;;;7.50;99.90;;;;;;5011673;28;20112;-44
2023/04/11 01:05:31;;;;;;;13.55;2.03;;;7.50;99.90;;;;;;5011840;28;20038;-44
2023/04/11 01:07:58;;;;;;;11.15;1.50;;;7.60;99.90;;;;;;5013188;28;20022;-44
2023/04/11 01:10:27;;;;;;;12.30;1.42;;;7.50;99.90;;;;;;5012988;28;20384;-47
2023/04/11 01:12:53;;;;;;;9.63;1.50;;;7.60;99.90;;;;;;5011729;28;20030;-44
2023/04/11 01:15:19;;;;;;;9.63;1.60;;;7.60;99.90;;;;;;5011601;28;20536;-49
2023/04/11 01:17:46;;;;;;;16.52;1.98;;;7.60;99.90;;;;;;5013049;28;20104;-46
2023/04/11 01:20:13;;;;;;;12.27;1.83;;;7.50;99.90;;;;;;5013021;28;20048;-45
2023/04/11 01:22:41;;;;;;;12.35;1.63;;;7.60;99.90;;;;;;5012949;28;20018;-44
2023/04/11 01:25:07;;;;;;;9.05;1.50;;;7.50;99.90;;;;;;5011869;28;20030;-44
2023/04/11 01:27:33;;;;;;;11.07;1.52;;;7.50;99.90;;;;;;5012675;28;20038;-46
2023/04/11 01:30:00;;;;;;;8.48;1.73;;;7.50;99.90;;;;;;5012548;28;20438;-44
2023/04/11 01:32:26;;;;;;;10.77;1.70;;;7.50;99.90;;;;;;5012537;28;20539;-44
2023/04/11 01:34:55;;;;;;;12.45;1.75;;;7.50;99.90;;;;;;5012749;28;20029;-44
2023/04/11 01:37:21;;;;;;;10.43;1.88;;;7.50;99.90;;;;;;5012486;28;20080;-44
2023/04/11 01:39:46;;;;;;;17.98;2.13;;;7.40;99.90;;;;;;5012337;28;20026;-46
2023/04/11 01:42:13;;;;;;;11.93;1.60;;;7.50;99.90;;;;;;5012247;28;20376;-45
2023/04/11 01:44:40;;;;;;;14.85;2.25;;;7.50;99.90;;;;;;5012417;28;20026;-44
2023/04/11 01:47:06;;;;;;;11.75;1.38;;;7.40;99.90;;;;;;5012147;28;20061;-44
2023/04/11 01:49:32;;;;;;;7.72;1.67;;;7.40;99.90;;;;;;5012624;28;20477;-45
2023/04/11 01:51:58;;;;;;;13.05;1.88;;;7.40;99.90;;;;;;5012505;28;20469;-45
2023/04/11 01:54:23;;;;;;;8.27;1.63;;;7.30;99.90;;;;;;5011796;28;20018;-44
2023/04/11 01:56:49;;;;;;;13.55;2.35;;;7.40;99.90;;;;;;5012120;28;20053;-44
2023/04/11 01:59:15;;;;;;;16.15;1.75;;;7.40;99.90;;;;;;5027203;28;20037;-44
2023/04/11 02:01:43;;;;;;;12.98;1.92;;;7.30;99.90;;;;;;5012264;28;20029;-44
2023/04/11 02:04:09;;;;;;;11.75;1.90;;;7.30;99.90;;;;;;5012244;28;20030;-44
2023/04/11 02:06:34;;;;;;;10.07;1.45;;;7.30;99.90;;;;;;5012257;28;20033;-44
2023/04/11 02:09:00;;;;;;;15.85;1.75;;;7.20;99.90;;;;;;5010765;28;20109;-45
2023/04/11 02:11:26;;;;;;;8.43;1.70;;;7.20;99.90;;;;;;5010837;28;20018;-44
2023/04/11 02:13:51;;;;;;;10.60;1.23;;;7.20;99.90;;;;;;5011905;28;20044;-44
2023/04/11 02:16:17;;;;;;;12.68;1.90;;;7.20;99.90;;;;;;5011210;28;20095;-44
2023/04/11 02:18:44;;;;;;;13.45;1.80;;;7.20;99.90;;;;;;5010471;28;20114;-44
2023/04/11 02:21:10;;;;;;;12.25;1.60;;;7.20;99.90;;;;;;5011943;28;20030;-44
2023/04/11 02:23:37;;;;;;;9.40;1.50;;;7.10;99.90;;;;;;5010187;28;20018;-44
2023/04/11 02:26:03;;;;;;;10.70;1.67;;;7.00;99.90;;;;;;5010920;28;20436;-48
2023/04/11 02:28:29;;;;;;;9.27;1.70;;;7.00;99.90;;;;;;5011094;28;20063;-44
2023/04/11 02:30:55;;;;;;;7.97;1.83;;;7.00;99.90;;;;;;5011518;28;20033;-45
2023/04/11 02:33:21;;;;;;;14.07;1.90;;;7.00;99.90;;;;;;5011714;28;20041;-45
2023/04/11 02:35:47;;;;;;;11.35;1.58;;;6.90;99.90;;;;;;5010210;28;20528;-46
2023/04/11 02:38:13;;;;;;;13.43;1.67;;;6.90;99.90;;;;;;5011565;28;20029;-45
2023/04/11 02:40:39;;;;;;;9.43;1.40;;;6.90;99.90;;;;;;5011111;28;20032;-44
2023/04/11 02:43:04;;;;;;;10.88;2.10;;;6.90;99.90;;;;;;5011501;28;20372;-47
2023/04/11 02:45:30;;;;;;;12.43;2.08;;;6.90;99.90;;;;;;5011403;28;20037;-45
2023/04/11 02:47:57;;;;;;;12.07;1.75;;;6.90;99.90;;;;;;5011459;28;20481;-44
2023/04/11 02:50:24;;;;;;;12.43;1.80;;;6.90;99.90;;;;;;5011515;28;20080;-48
2023/04/11 02:52:51;;;;;;;12.68;1.98;;;6.80;99.90;;;;;;5011293;28;20041;-45
2023/04/11 02:55:17;;;;;;;12.43;2.10;;;6.80;99.90;;;;;;5010599;28;20062;-45
2023/04/11 02:57:42;;;;;;;14.05;1.83;;;6.80;99.90;;;;;;5010676;28;20033;-45
2023/04/11 03:00:09;;;;;;;16.85;2.10;;;6.70;99.90;;;;;;5009261;28;20038;-45
2023/04/11 03:02:34;;;;;;;14.15;2.00;;;6.70;99.90;;;;;;5010952;28;20087;-45
2023/04/11 03:05:02;;;;;;;15.38;2.13;;;6.60;99.90;;;;;;5011266;28;20030;-44
2023/04/11 03:07:31;;;;;;;13.07;1.90;;;6.70;99.90;;;;;;5010947;28;20046;-46
2023/04/11 03:09:56;;;;;;;11.02;1.65;;;6.60;99.90;;;;;;5010590;28;20115;-46
2023/04/11 03:12:22;;;;;;;14.38;1.80;;;6.70;99.90;;;;;;5011003;28;20069;-44
2023/04/11 03:14:47;;;;;;;13.82;2.20;;;6.70;99.90;;;;;;5010706;28;20073;-45
2023/04/11 03:17:13;;;;;;;10.80;1.92;;;6.80;99.90;;;;;;5010840;28;20030;-46
2023/04/11 03:19:39;;;;;;;13.80;1.63;;;6.80;99.90;;;;;;5010904;28;20022;-45
2023/04/11 03:22:04;;;;;;;12.20;1.77;;;6.80;99.90;;;;;;5010131;28;20033;-45
2023/04/11 03:24:31;;;;;;;10.55;1.55;;;6.80;99.90;;;;;;5008892;28;20030;-45
2023/04/11 03:26:57;;;;;;;12.75;1.63;;;6.80;99.90;;;;;;5010605;28;20030;-45
2023/04/11 03:29:23;;;;;;;10.98;1.92;;;6.80;99.90;;;;;;5009778;28;20026;-45
2023/04/11 03:31:49;;;;;;;13.27;1.70;;;6.80;99.90;;;;;;5010747;28;20400;-49
2023/04/11 03:34:16;;;;;;;16.77;2.38;;;6.70;99.90;;;;;;5010813;28;20445;-47
2023/04/11 03:36:42;;;;;;;14.27;2.22;;;6.70;99.90;;;;;;5010546;28;20117;-46
2023/04/11 03:39:08;;;;;;;15.77;1.83;;;6.70;99.90;;;;;;5010493;28;20458;-45
2023/04/11 03:41:34;;;;;;;18.50;2.08;;;6.60;99.90;;;;;;5010905;28;20033;-44
2023/04/11 03:44:00;;;;;;;15.20;2.10;;;6.60;99.90;;;;;;5010793;28;20034;-46
2023/04/11 03:46:26;;;;;;;8.77;1.33;;;6.60;99.90;;;;;;5010637;28;20034;-45
2023/04/11 03:48:51;;;;;;;11.18;1.83;;;6.60;99.90;;;;;;5010613;28;20029;-44
2023/04/11 03:51:17;;;;;;;8.93;1.95;;;6.60;99.90;;;;;;5010761;28;20041;-45
2023/04/11 03:53:43;;;;;;;12.25;1.80;;;6.50;99.90;;;;;;5010155;28;20030;-45
2023/04/11 03:56:09;;;;;;;10.68;2.15;;;6.50;99.90;;;;;;5010675;28;20495;-44
2023/04/11 03:58:35;;;;;;;10.68;1.50;;;6.40;99.90;;;;;;5010634;28;20020;-45
2023/04/11 04:01:01;;;;;;;16.17;2.38;;;6.40;99.90;;;;;;5010656;28;20117;-45
2023/04/11 04:03:27;;;;;;;17.50;1.95;;;6.30;99.90;;;;;;5010713;28;20037;-45
2023/04/11 04:05:53;;;;;;;9.77;1.40;;;6.30;99.90;;;;;;5010250;28;20026;-43
2023/04/11 04:08:19;;;;;;;8.80;1.63;;;6.20;99.90;;;;;;5010752;28;20067;-44
2023/04/11 04:10:45;;;;;;;14.07;2.03;;;6.10;99.90;;;;;;5010307;28;20033;-45
2023/04/11 04:13:11;;;;;;;11.55;1.60;;;6.10;99.90;;;;;;5010523;28;20037;-45
2023/04/11 04:15:37;;;;;;;8.95;1.80;;;6.00;99.90;;;;;;5010640;28;20026;-44
2023/04/11 04:18:03;;;;;;;17.23;2.03;;;6.00;99.90;;;;;;5010297;28;20029;-44
2023/04/11 04:20:28;;;;;;;10.82;2.03;;;6.00;99.90;;;;;;5010983;28;20101;-45
2023/04/11 04:22:54;;;;;;;9.90;1.42;;;5.90;99.90;;;;;;5010566;28;20097;-46
2023/04/11 04:25:20;;;;;;;13.00;1.60;;;5.90;99.90;;;;;;5010022;28;20053;-45
2023/04/11 04:27:46;;;;;;;9.40;1.98;;;5.90;99.90;;;;;;5009979;28;20053;-44
2023/04/11 04:30:14;;;;;;;12.07;1.95;;;5.90;99.90;;;;;;5010415;28;20108;-44
2023/04/11 04:32:43;;;;;;;11.70;1.52;;;6.00;99.90;;;;;;5010188;28;20161;-45
2023/04/11 04:35:10;;;;;;;16.95;2.15;;;6.00;99.90;;;;;;5012423;28;20072;-44
2023/04/11 04:37:44;;;;;;;12.85;1.60;;;6.00;99.90;;;;;;5013789;28;20037;-44
2023/04/11 04:40:14;;;;;;;14.48;1.83;;;6.00;99.90;;;;;;5013597;28;20022;-46
2023/04/11 04:42:41;;;;;;;24.05;2.15;;;6.00;99.90;;;;;;5013708;28;20114;-44
2023/04/11 04:45:08;;;;;;;14.38;1.92;;;5.90;99.90;;;;;;5013672;28;20462;-44
2023/04/11 04:47:36;;;;;;;8.70;1.73;;;5.90;99.90;;;;;;5013568;28;20030;-44
2023/04/11 04:50:01;;;;;;;14.07;1.95;;;6.00;99.90;;;;;;5013547;28;20026;-44
2023/04/11 04:52:28;;;;;;;12.90;1.70;;;5.90;99.90;;;;;;5013306;28;20069;-44
2023/04/11 04:54:58;;;;;;;7.65;1.75;;;5.90;99.90;;;;;;5013164;28;20080;-44
2023/04/11 04:57:28;;;;;;;15.85;2.35;;;6.00;99.90;;;;;;5012878;28;20049;-44
2023/04/11 04:59:54;;;;;;;13.60;2.00;;;6.00;99.90;;;;;;5013525;28;20014;-44
2023/04/11 05:02:20;;;;;;;19.50;2.30;;;6.00;99.90;;;;;;5013068;28;20132;-44
2023/04/11 05:04:49;;;;;;;11.23;1.80;;;6.10;99.90;;;;;;5013415;28;20528;-45
2023/04/11 05:07:14;;;;;;;12.50;1.77;;;6.10;99.90;;;;;;5011399;28;20048;-45
2023/04/11 05:09:40;;;;;;;12.15;1.95;;;6.10;99.90;;;;;;5013073;28;20018;-44
2023/04/11 05:12:07;;;;;;;16.35;2.00;;;6.10;99.90;;;;;;5013054;28;20033;-44
2023/04/11 05:14:32;;;;;;;9.35;1.50;;;6.10;99.90;;;;;;5013339;28;20037;-44
2023/04/11 05:16:58;;;;;;;15.75;1.70;;;6.10;99.90;;;;;;5012910;28;20393;-44
2023/04/11 05:19:23;;;;;;;10.43;1.52;;;6.10;99.90;;;;;;5013172;28;20444;-45
2023/04/11 05:21:50;;;;;;;11.48;1.63;;;6.10;99.90;;;;;;5012721;28;20461;-45
2023/04/11 05:24:15;;;;;;;11.13;1.73;;;6.10;99.90;;;;;;5012127;28;20165;-45
2023/04/11 05:26:41;;;;;;;10.35;1.13;;;6.10;99.90;;;;;;4998540;28;20121;-45
2023/04/11 05:29:07;;;;;;;13.02;2.60;;;6.00;99.90;;;;;;5012309;28;20093;-45
2023/04/11 05:31:32;;;;;;;16.92;2.17;;;6.00;99.90;;;;;;5012255;28;20030;-46
2023/04/11 05:33:58;;;;;;;10.45;2.22;;;6.00;99.90;;;;;;5013126;28;20022;-45
2023/04/11 05:36:24;;;;;;;13.30;2.08;;;5.90;99.90;;;;;;5012474;28;20396;-44
2023/04/11 05:38:50;;;;;;;6.97;1.52;;;6.00;99.90;;;;;;5012586;28;20018;-45
2023/04/11 05:41:16;;;;;;;12.70;1.88;;;5.90;99.90;;;;;;5011957;28;20026;-45
2023/04/11 05:43:42;;;;;;;13.70;2.20;;;5.90;99.90;;;;;;5011001;28;20112;-46
2023/04/11 05:46:08;;;;;;;9.93;1.65;;;5.90;99.90;;;;;;5011170;28;20096;-44
2023/04/11 05:48:34;;;;;;;12.95;1.83;;;5.90;99.90;;;;;;5012395;28;20156;-46
2023/04/11 05:50:59;;;;;;;11.00;2.03;;;5.90;99.90;;;;;;5012319;28;20203;-48
2023/04/11 05:53:25;;;;;;;18.85;1.88;;;6.00;99.90;;;;;;5011262;28;20517;-45
2023/04/11 05:55:51;;;;;;;16.75;1.77;;;6.10;99.90;;;;;;5011785;28;20046;-47
2023/04/11 05:58:16;;;;;;;14.82;1.90;;;6.20;99.90;;;;;;5002839;28;20431;-43
2023/04/11 06:00:42;;;;;;;10.88;1.92;;;6.30;99.90;;;;;;5012038;28;20036;-44
2023/04/11 06:03:08;;;;;;;8.80;1.52;;;6.30;99.90;;;;;;5011917;28;20109;-44
2023/04/11 06:05:35;;;;;;;13.63;1.80;;;6.40;99.90;;;;;;5011998;28;20125;-45
2023/04/11 06:08:02;;;;;;;12.18;1.58;;;6.50;99.90;;;;;;5011921;28;20058;-44
2023/04/11 06:10:29;;;;;;;15.98;1.95;;;6.50;99.90;;;;;;5012232;28;20025;-44
2023/04/11 06:12:55;;;;;;;14.23;2.38;;;6.60;99.90;;;;;;5011890;28;20022;-44
2023/04/11 06:15:22;;;;;;;14.57;2.55;;;6.70;99.90;;;;;;5012050;28;20045;-45
2023/04/11 06:17:47;;;;;;;16.50;2.53;;;6.90;99.90;;;;;;5011672;28;20030;-45
2023/04/11 06:20:13;;;;;;;16.10;1.77;;;7.00;99.90;;;;;;5011751;28;20041;-44
2023/04/11 06:22:39;;;;;;;14.88;1.85;;;7.10;99.90;;;;;;5011827;28;20022;-45
2023/04/11 06:25:06;;;;;;;15.02;2.28;;;7.20;99.90;;;;;;5011857;28;20392;-44
2023/04/11 06:27:31;;;;;;;12.85;1.77;;;7.30;99.90;;;;;;5011529;28;20060;-45
2023/04/11 06:29:57;;;;;;;14.32;1.75;;;7.40;99.90;;;;;;5011479;28;20471;-46
2023/04/11 06:32:24;;;;;;;10.68;1.65;;;7.50;99.90;;;;;;5010242;28;20030;-45
2023/04/11 06:34:50;;;;;;;8.20;1.48;;;8.00;99.90;;;;;;5011627;28;20022;-45
2023/04/11 06:37:16;;;;;;;8.75;1.38;;;9.00;99.90;;;;;;5011343;28;20037;-46
2023/04/11 06:39:41;;;;;;;10.95;2.05;;;10.20;99.90;;;;;;5011455;28;20026;-47
2023/04/11 06:42:07;;;;;;;10.88;1.67;;;11.30;99.90;;;;;;5011391;28;20033;-46
2023/04/11 06:44:32;;;;;;;12.80;1.55;;;12.30;99.90;;;;;;5011287;28;20099;-45
2023/04/11 06:46:58;;;;;;;11.63;2.00;;;13.00;99.90;;;;;;5011084;28;20034;-51
2023/04/11 06:49:24;;;;;;;11.23;1.63;;;12.70;99.90;;;;;;5011094;28;20057;-45
2023/04/11 06:51:50;;;;;;;10.50;1.52;;;11.90;99.90;;;;;;5011456;28;20057;-46
2023/04/11 06:54:17;;;;;;;8.80;1.77;;;11.10;99.90;;;;;;5010195;28;20022;-45
2023/04/11 06:56:43;;;;;;;11.25;2.03;;;10.80;99.90;;;;;;5010599;28;20053;-44
2023/04/11 06:59:09;;;;;;;9.43;2.25;;;10.60;99.90;;;;;;5011154;28;20030;-45
2023/04/11 07:01:37;;;;;;;18.00;3.30;;;11.20;99.90;;;;;;5011258;28;20087;-45
2023/04/11 07:04:04;;;;;;;11.90;2.80;;;12.30;99.90;;;;;;5011326;28;20026;-45
2023/04/11 07:06:30;;;;;;;9.73;2.22;;;13.50;99.90;;;;;;5010745;28;20355;-45
2023/04/11 07:08:56;;;;;;;11.88;2.10;;;14.50;99.90;;;;;;5026206;28;20018;-46
2023/04/11 07:11:22;;;;;;;11.70;1.90;;;15.10;99.20;;;;;;5010764;28;20105;-44
2023/04/11 07:13:49;;;;;;;12.20;2.65;;;15.90;95.00;;;;;;5009568;28;20096;-48
2023/04/11 07:16:14;;;;;;;8.93;1.73;;;16.20;93.30;;;;;;5011091;28;20032;-48
2023/04/11 07:18:40;;;;;;;12.25;2.67;;;16.70;91.30;;;;;;5010754;28;20038;-46
2023/04/11 07:21:10;;;;;;;6.78;1.80;;;17.20;88.40;;;;;;5011147;28;20030;-45
2023/04/11 07:23:36;;;;;;;9.77;1.90;;;17.60;87.60;;;;;;5010807;28;20014;-45
2023/04/11 07:26:02;;;;;;;11.80;1.98;;;17.70;85.40;;;;;;5010812;28;20046;-44
2023/04/11 07:28:30;;;;;;;11.07;2.42;;;18.30;81.90;;;;;;5010852;28;20080;-45
2023/04/11 07:30:56;;;;;;;13.35;2.80;;;18.70;79.50;;;;;;5010443;28;20065;-45
2023/04/11 07:33:22;;;;;;;7.07;1.60;;;19.20;76.40;;;;;;5010346;28;20057;-44
2023/04/11 07:35:48;;;;;;;8.50;1.75;;;19.20;75.00;;;;;;5025506;28;20022;-47
2023/04/11 07:38:28;;;;;;;10.38;2.50;;;18.90;76.80;;;;;;5010753;28;20034;-45
2023/04/11 07:40:55;;;;;;;15.38;2.55;;;18.80;75.40;;;;;;5010756;28;20113;-50
2023/04/11 07:43:21;;;;;;;9.65;2.47;;;18.30;75.50;;;;;;5010877;28;20072;-46
2023/04/11 07:45:47;;;;;;;10.50;2.30;;;18.80;75.70;;;;;;5010756;28;20390;-45
2023/04/11 07:48:12;;;;;;;11.70;2.30;;;19.00;73.50;;;;;;5010457;28;20117;-44
2023/04/11 07:50:38;;;;;;;8.75;2.55;;;19.20;73.90;;;;;;5010548;28;20010;-46
2023/04/11 07:53:04;;;;;;;8.70;2.80;;;19.30;74.00;;;;;;5010726;28;20041;-48
2023/04/11 07:55:29;;;;;;;10.00;2.80;;;19.70;71.00;;;;;;5010347;28;20042;-46
2023/04/11 07:57:55;;;;;;;13.35;2.95;;;20.00;71.80;;;;;;5009402;28;20448;-46
2023/04/11 08:00:22;;;;;;;14.20;2.58;;;19.90;71.40;;;;;;4996740;28;20056;-45
2023/04/11 08:02:48;;;;;;;12.88;2.13;;;20.40;68.20;;;;;;5008155;28;20032;-46
2023/04/11 08:05:14;;;;;;;11.23;2.03;;;19.30;69.90;;;;;;5005399;28;20037;-45
2023/04/11 08:07:40;;;;;;;8.95;2.30;;;19.30;70.50;;;;;;5003004;28;20030;-45
2023/04/11 08:10:06;;;;;;;10.52;2.00;;;19.00;70.20;;;;;;5009780;28;20037;-46
2023/04/11 08:12:32;;;;;;;13.50;2.00;;;18.60;72.90;;;;;;5014359;28;20029;-45
2023/04/11 08:14:59;;;;;;;9.38;2.15;;;17.90;72.80;;;;;;4996922;28;20184;-45
2023/04/11 08:17:27;;;;;;;10.32;1.90;;;17.30;75.00;;;;;;5014596;28;20053;-46
2023/04/11 08:19:56;;;;;;;13.50;2.13;;;16.80;77.90;;;;;;5013708;28;20057;-45
2023/04/11 08:22:22;;;;;;;8.88;1.70;;;16.00;76.90;;;;;;5013780;28;20477;-44
2023/04/11 08:24:48;;;;;;;10.93;1.80;;;15.80;81.20;;;;;;5014037;28;20029;-45
2023/04/11 08:27:14;;;;;;;9.02;2.05;;;16.10;80.20;;;;;;5011906;28;20032;-46
2023/04/11 08:29:39;;;;;;;10.52;2.10;;;16.00;80.30;;;;;;5013778;28;20037;-44
2023/04/11 08:32:05;;;;;;;12.95;1.98;;;15.90;80.40;;;;;;5013316;28;20034;-45
2023/04/11 08:34:32;;;;;;;10.63;2.05;;;16.20;78.10;;;;;;5013613;28;20030;-45
2023/04/11 08:36:57;;;;;;;8.82;1.95;;;16.40;79.30;;;;;;5013604;28;20030;-47
2023/04/11 08:39:23;;;;;;;10.23;2.63;;;16.70;78.60;;;;;;5013364;28;20381;-46
2023/04/11 08:41:50;;;;;;;9.50;1.90;;;17.20;80.10;;;;;;5013624;28;20092;-47
2023/04/11 08:44:15;;;;;;;9.80;1.70;;;17.10;75.60;;;;;;5013613;28;20022;-45
2023/04/11 08:46:42;;;;;;;13.38;1.60;;;16.40;75.60;;;;;;5013284;28;20041;-46
2023/04/11 08:49:08;;;;;;;9.13;1.65;;;15.70;77.40;;;;;;5012756;28;20488;-45
2023/04/11 08:51:33;;;;;;;11.27;1.60;;;15.10;79.70;;;;;;5028138;28;20029;-44
2023/04/11 08:54:04;;;;;;;12.10;2.03;;;14.80;82.30;;;;;;5013079;28;20022;-45
2023/04/11 08:56:31;;;;;;;11.23;2.00;;;14.80;83.70;;;;;;5012844;28;20061;-47
2023/04/11 08:58:56;;;;;;;8.90;1.95;;;15.10;84.10;;;;;;5011499;28;20100;-49
2023/04/11 09:01:26;;;;;;;15.45;2.00;;;15.10;82.70;;;;;;5009743;28;20057;-41
2023/04/11 09:03:52;;;;;;;9.98;1.77;;;15.10;86.10;;;;;;5008324;28;20014;-43
2023/04/11 09:06:17;;;;;;;14.57;1.83;;;14.80;82.10;;;;;;5008171;28;20037;-57
2023/04/11 09:08:43;;;;;;;10.38;1.70;;;14.90;81.90;;;;;;5012728;28;20100;-43
2023/04/11 09:11:09;;;;;;;7.28;1.40;;;15.10;82.60;;;;;;5002526;28;20053;-51
2023/04/11 09:13:34;;;;;;;10.80;1.92;;;15.90;79.50;;;;;;5011606;28;20029;-47
2023/04/11 09:16:11;;;;;;;9.15;2.00;;;16.40;78.60;;;;;;5012880;28;20025;-53
2023/04/11 09:18:42;;;;;;;7.28;2.00;;;15.70;79.60;;;;;;5008191;28;20080;-43
2023/04/11 09:21:10;;;;;;;9.05;1.77;;;15.10;82.80;;;;;;5012356;28;20026;-45
2023/04/11 09:23:36;;;;;;;9.55;1.77;;;14.90;82.90;;;;;;5009954;28;20105;-44
2023/04/11 09:26:07;;;;;;;12.55;1.85;;;14.50;82.40;;;;;;5011664;28;20045;-43
2023/04/11 09:28:52;;;;;;;14.38;2.03;;;14.10;84.70;;;;;;5010571;28;20030;-43
2023/04/11 09:31:18;;;;;;;12.10;2.28;;;13.60;87.80;;;;;;5011308;28;20041;-43
2023/04/11 09:33:53;;;;;;;9.38;1.90;;;13.70;91.20;;;;;;5012147;28;20030;-44
2023/04/11 09:36:23;;;;;;;16.13;2.40;;;14.40;90.40;;;;;;5011425;28;20036;-44
2023/04/11 09:38:50;;;;;;;10.07;1.95;;;15.00;90.30;;;;;;5012217;28;20515;-43
2023/04/11 09:41:31;;;;;;;18.35;2.38;;;15.20;88.00;;;;;;5011868;28;20057;-45
2023/04/11 09:43:57;;;;;;;12.77;1.90;;;15.40;86.50;;;;;;5010450;28;20052;-44
2023/04/11 09:46:24;;;;;;;13.85;2.05;;;15.20;86.80;;;;;;5006989;28;20484;-47
2023/04/11 09:48:51;;;;;;;16.02;2.28;;;14.80;89.00;;;;;;5003449;28;20548;-45
2023/04/11 09:51:18;;;;;;;12.77;2.03;;;14.70;91.40;;;;;;5008735;28;20389;-41
2023/04/11 09:53:44;;;;;;;16.13;2.50;;;14.80;91.20;;;;;;5012268;28;21251;-40
2023/04/11 09:56:10;;;;;;;12.60;1.80;;;14.90;90.00;;;;;;5011450;28;20519;-44
2023/04/11 09:58:37;;;;;;;8.60;1.90;;;15.70;90.00;;;;;;5012262;28;20109;-44
2023/04/11 10:01:06;;;;;;;9.73;1.75;;;16.30;81.60;;;;;;5005042;28;20044;-48
2023/04/11 10:03:33;;;;;;;14.57;2.30;;;16.70;84.60;;;;;;5011405;28;20434;-45
2023/04/11 10:06:01;;;;;;;16.20;2.25;;;17.00;81.00;;;;;;5011921;28;20034;-47
2023/04/11 10:08:32;;;;;;;11.80;2.30;;;17.50;83.10;;;;;;5011487;28;20503;-49
2023/04/11 10:10:59;;;;;;;10.73;2.00;;;17.80;78.80;;;;;;5011941;28;20117;-48
2023/04/11 10:13:44;;;;;;;13.27;2.03;;;17.80;77.60;;;;;;5010237;28;20116;-49
2023/04/11 10:16:15;;;;;;;8.93;2.10;;;17.60;79.00;;;;;;5011261;28;20033;-38
2023/04/11 10:18:49;;;;;;;11.48;1.92;;;17.70;77.80;;;;;;5010367;28;20041;-54
2023/04/11 10:21:31;;;;;;;12.98;2.45;;;17.70;80.00;;;;;;5010950;28;20033;-48
2023/04/11 10:24:16;;;;;;;13.32;2.45;;;18.10;79.00;;;;;;5011759;28;20053;-44
2023/04/11 10:26:51;;;;;;;11.40;1.90;;;18.30;77.90;;;;;;5002263;28;20147;-43
2023/04/11 10:29:47;;;;;;;14.70;2.25;;;18.00;73.80;;;;;;5010469;28;20029;-46
2023/04/11 10:32:22;;;;;;;13.43;2.38;;;17.90;77.10;;;;;;5008908;28;20038;-49
2023/04/11 10:34:53;;;;;;;9.45;2.10;;;18.00;76.90;;;;;;5011014;28;20503;-47
2023/04/11 10:37:35;;;;;;;10.68;2.00;;;18.20;78.00;;;;;;5011199;28;20037;-48
2023/04/11 10:40:07;;;;;;;14.20;2.30;;;18.60;74.10;;;;;;5011374;28;20037;-47
2023/04/11 10:42:34;;;;;;;12.60;2.00;;;19.20;73.70;;;;;;5011426;28;20034;-41
2023/04/11 10:45:21;;;;;;;12.60;2.33;;;18.30;73.50;;;;;;5011288;28;20037;-46
2023/04/11 10:47:55;;;;;;;13.32;1.85;;;17.00;75.90;;;;;;5011343;28;20033;-45
2023/04/11 10:50:30;;;;;;;9.38;1.80;;;15.80;80.00;;;;;;5010181;28;20029;-43
2023/04/11 10:52:57;;;;;;;10.88;2.05;;;14.90;84.90;;;;;;5008358;28;20034;-44
2023/04/11 10:55:27;;;;;;;15.52;2.28;;;13.90;90.50;;;;;;5010975;28;20038;-44
2023/04/11 10:58:18;;;;;;;14.88;2.53;;;13.60;94.50;;;;;;5009415;28;20033;-49
2023/04/11 11:00:53;;;;;;;18.42;2.30;;;13.30;95.20;;;;;;5007824;28;20053;-47
2023/04/11 11:03:28;;;;;;;18.25;2.60;;;13.60;98.70;;;;;;5010306;28;20058;-43
2023/04/11 11:06:04;;;;;;;19.10;2.35;;;14.40;96.50;;;;;;5010376;28;20017;-46
2023/04/11 11:08:33;;;;;;;13.95;2.75;;;15.60;92.80;;;;;;5008519;28;20021;-44
2023/04/11 11:11:05;;;;;;;11.45;2.30;;;16.30;90.90;;;;;;5009149;28;20017;-47
2023/04/11 11:13:44;;;;;;;10.57;2.30;;;16.90;85.30;;;;;;5010166;28;20042;-45
2023/04/11 11:16:15;;;;;;;15.27;3.00;;;16.90;89.00;;;;;;5012369;28;20034;-62
2023/04/11 11:18:44;;;;;;;10.95;2.35;;;16.40;83.30;;;;;;5010005;28;20029;-61
2023/04/11 11:21:10;;;;;;;13.15;2.15;;;16.30;85.30;;;;;;5019769;28;20028;-61
2023/04/11 11:23:36;;;;;;;16.50;2.55;;;17.00;87.00;;;;;;5009443;28;20037;-61
2023/04/11 11:26:02;;;;;;;11.88;2.22;;;17.20;85.50;;;;;;5012471;28;20026;-61
2023/04/11 11:28:27;;;;;;;12.50;2.03;;;17.30;84.90;;;;;;5016382;28;20379;-61
2023/04/11 11:30:55;;;;;;;9.32;1.85;;;17.40;82.10;;;;;;5008159;28;20026;-48
2023/04/11 11:33:23;;;;;;;16.95;2.30;;;17.50;80.40;;;;;;5016839;28;20396;-44
2023/04/11 11:35:58;;;;;;;17.65;2.95;;;17.20;82.60;;;;;;5014209;28;20479;-46
2023/04/11 11:38:25;;;;;;;17.58;3.00;;;17.10;84.30;;;;;;5012329;28;20026;-47
2023/04/11 11:40:52;;;;;;;12.50;2.20;;;17.00;83.80;;;;;;5016660;28;20060;-48
2023/04/11 11:43:18;;;;;;;12.15;2.30;;;17.00;82.50;;;;;;5011406;28;20021;-48
2023/04/11 11:45:43;;;;;;;12.27;2.42;;;16.70;83.10;;;;;;5012427;28;20021;-49
2023/04/11 11:48:23;;;;;;;14.00;2.42;;;16.70;84.70;;;;;;5006123;28;20046;-48
2023/04/11 11:50:56;;;;;;;11.52;2.35;;;16.60;86.50;;;;;;5010656;28;20029;-48
2023/04/11 11:53:22;;;;;;;10.82;2.05;;;16.30;85.30;;;;;;5020464;28;20381;-45
2023/04/11 11:55:48;;;;;;;15.02;2.30;;;16.10;87.20;;;;;;4956659;28;1119817;-53
2023/04/11 11:58:15;;;;;;;16.58;2.05;;;15.70;88.10;;;;;;5013727;28;20157;-45
2023/04/11 12:00:41;;;;;;;11.65;2.28;;;15.30;89.40;;;;;;5013996;28;20045;-45
2023/04/11 12:03:10;;;;;;;18.40;2.65;;;15.20;90.00;;;;;;5013832;28;20393;-46
2023/04/11 12:05:36;;;;;;;;;;;15.00;90.30;;;;;;5014346;28;20033;-45
2023/04/11 12:08:04;;;;;;;15.07;2.05;;;14.90;92.40;;;;;;5013614;28;19928;-45
2023/04/11 12:10:49;;;;;;;19.45;3.78;;;14.90;92.80;;;;;;5012568;28;20097;-48
2023/04/11 12:13:17;;;;;;;12.40;2.20;;;14.80;92.70;;;;;;5003406;28;20022;-46
2023/04/11 12:15:49;;;;;;;18.67;2.28;;;14.80;94.20;;;;;;5010921;28;20022;-45
2023/04/11 12:18:14;;;;;;;11.45;2.10;;;14.70;93.70;;;;;;5012259;28;20404;-46
2023/04/11 12:20:40;;;;;;;17.15;3.30;;;14.50;94.00;;;;;;5012188;28;20018;-47
2023/04/11 12:23:06;;;;;;;15.93;2.40;;;14.50;95.10;;;;;;5012414;28;20061;-45
2023/04/11 12:25:31;;;;;;;15.65;3.17;;;14.10;94.40;;;;;;5010838;28;20072;-47
2023/04/11 12:27:57;;;;;;;19.92;2.92;;;14.00;96.90;;;;;;5011686;28;20087;-45
2023/04/11 12:30:23;;;;;;;20.10;2.70;;;14.00;96.40;;;;;;5011421;28;20040;-48
2023/04/11 12:32:49;;;;;;;17.88;2.90;;;14.10;96.90;;;;;;5011279;28;20026;-49
2023/04/11 12:35:14;;;;;;;15.82;2.75;;;14.00;98.10;;;;;;5011533;28;20029;-45
2023/04/11 12:37:40;;;;;;;21.38;2.72;;;14.00;98.40;;;;;;5011702;28;20040;-46
2023/04/11 12:40:14;;;;;;;16.65;3.20;;;13.80;98.90;;;;;;5011831;28;20018;-47
2023/04/11 12:42:40;;;;;;;13.95;2.13;;;13.70;98.50;;;;;;5012029;28;20029;-54
2023/04/11 12:45:07;;;;;;;21.05;2.63;;;13.60;99.60;;;;;;5013837;28;20044;-49